createdAt,value
2022-08-01T00:01:16.277Z,85.00
2022-08-01T00:03:45.457Z,85.10
2022-08-01T00:06:13.298Z,85.00
2022-08-01T00:08:41.073Z,85.10
2022-08-01T00:11:10.086Z,85.20
2022-08-01T00:13:37.949Z,85.40
2022-08-01T00:16:05.936Z,85.40
2022-08-01T00:18:33.731Z,85.40
2022-08-01T00:21:04.188Z,85.40
2022-08-01T00:23:33.575Z,85.50
2022-08-01T00:26:03.122Z,85.60
2022-08-01T00:28:30.935Z,85.60
2022-08-01T00:31:00.154Z,85.70
2022-08-01T00:33:28.028Z,86.60
2022-08-01T00:35:55.966Z,85.80
2022-08-01T00:38:25.182Z,86.00
2022-08-01T00:40:54.477Z,85.90
2022-08-01T00:43:22.313Z,85.90
2022-08-01T00:45:50.342Z,86.00
2022-08-01T00:48:18.159Z,86.90
2022-08-01T00:50:46.007Z,86.10
2022-08-01T00:53:18.496Z,86.10
2022-08-01T00:55:49.194Z,86.10
2022-08-01T00:58:17.853Z,86.20
2022-08-01T01:00:52.716Z,86.30
2022-08-01T01:03:26.392Z,86.30
2022-08-01T01:06:16.694Z,86.30
2022-08-01T01:08:56.778Z,86.40
2022-08-01T01:11:30.766Z,86.40
2022-08-01T01:14:03.886Z,86.50
2022-08-01T01:16:34.332Z,86.50
2022-08-01T01:23:08.245Z,86.60
2022-08-01T01:26:04.458Z,86.50
2022-08-01T01:28:37.775Z,86.50
2022-08-01T01:31:11.084Z,86.60
2022-08-01T01:33:45.318Z,86.70
2022-08-01T01:36:16.397Z,86.80
2022-08-01T01:38:46.275Z,86.80
2022-08-01T01:41:16.662Z,87.00
2022-08-01T01:43:45.383Z,87.10
2022-08-01T01:46:17.638Z,87.00
2022-08-01T01:48:46.911Z,87.00
2022-08-01T01:51:16.850Z,87.10
2022-08-01T01:53:47.170Z,87.20
2022-08-01T01:56:18.830Z,87.10
2022-08-01T01:58:50.268Z,87.00
2022-08-01T02:01:58.156Z,87.20
2022-08-01T02:04:08.691Z,87.20
2022-08-01T02:06:37.068Z,87.10
2022-08-01T02:09:05.634Z,87.20
2022-08-01T02:11:34.858Z,87.40
2022-08-01T02:14:05.425Z,87.30
2022-08-01T02:16:38.076Z,87.30
2022-08-01T02:19:05.947Z,87.40
2022-08-01T02:21:39.100Z,87.50
2022-08-01T02:24:14.062Z,87.60
2022-08-01T02:26:47.439Z,87.60
2022-08-01T02:29:21.032Z,87.60
2022-08-01T02:31:52.562Z,87.60
2022-08-01T02:34:21.888Z,87.60
2022-08-01T02:36:51.127Z,87.60
2022-08-01T02:39:23.613Z,87.80
2022-08-01T02:41:58.976Z,87.90
2022-08-01T02:44:32.660Z,87.70
2022-08-01T02:47:04.371Z,87.80
2022-08-01T02:49:39.506Z,87.90
2022-08-01T02:52:10.189Z,87.90
2022-08-01T02:54:39.169Z,87.90
2022-08-01T02:57:09.166Z,88.10
2022-08-01T02:59:43.109Z,88.00
2022-08-01T03:02:14.862Z,88.10
2022-08-01T03:04:44.104Z,88.00
2022-08-01T03:07:14.350Z,88.90
2022-08-01T03:09:45.317Z,88.30
2022-08-01T03:12:15.580Z,88.10
2022-08-01T03:14:45.510Z,88.10
2022-08-01T03:17:17.860Z,88.20
2022-08-01T03:19:47.590Z,88.20
2022-08-01T03:22:18.747Z,88.20
2022-08-01T03:24:52.154Z,88.40
2022-08-01T03:27:21.746Z,88.40
2022-08-01T03:29:50.853Z,88.30
2022-08-01T03:32:21.587Z,88.40
2022-08-01T03:34:49.581Z,88.50
2022-08-01T03:37:22.986Z,88.60
2022-08-01T03:39:55.167Z,88.50
2022-08-01T03:42:29.709Z,88.60
2022-08-01T03:45:06.859Z,88.60
2022-08-01T03:47:41.990Z,88.60
2022-08-01T03:50:15.545Z,88.60
2022-08-01T03:52:46.818Z,88.70
2022-08-01T03:55:17.799Z,88.80
2022-08-01T03:57:47.128Z,88.70
2022-08-01T04:00:19.271Z,88.80
2022-08-01T04:02:50.632Z,88.80
2022-08-01T04:05:18.949Z,88.80
2022-08-01T04:07:48.589Z,88.80
2022-08-01T04:10:19.994Z,88.90
2022-08-01T04:12:48.222Z,89.00
2022-08-01T04:15:19.270Z,89.00
2022-08-01T04:17:48.728Z,89.00
2022-08-01T04:20:16.710Z,89.10
2022-08-01T04:22:44.681Z,89.10
2022-08-01T04:25:16.697Z,89.10
2022-08-01T04:27:51.837Z,89.20
2022-08-01T04:30:24.535Z,89.30
2022-08-01T04:32:56.188Z,89.30
2022-08-01T04:36:02.523Z,89.30
2022-08-01T04:38:17.791Z,89.30
2022-08-01T04:40:47.312Z,90.00
2022-08-01T04:43:15.293Z,89.40
2022-08-01T04:45:45.527Z,89.40
2022-08-01T04:48:17.173Z,89.50
2022-08-01T04:50:49.334Z,89.40
2022-08-01T04:53:19.120Z,89.40
2022-08-01T04:55:47.794Z,89.50
2022-08-01T04:58:18.664Z,89.60
2022-08-01T05:00:47.011Z,89.50
2022-08-01T05:03:16.161Z,89.60
2022-08-01T05:05:43.931Z,89.60
2022-08-01T05:08:11.801Z,89.60
2022-08-01T05:10:39.627Z,89.60
2022-08-01T05:13:08.277Z,89.70
2022-08-01T05:15:37.497Z,89.70
2022-08-01T05:18:05.774Z,89.80
2022-08-01T05:20:37.754Z,89.80
2022-08-01T05:23:05.660Z,89.90
2022-08-01T05:25:56.432Z,89.90
2022-08-01T05:28:23.343Z,89.90
2022-08-01T05:30:51.096Z,90.00
2022-08-01T05:33:18.825Z,90.00
2022-08-01T05:35:49.368Z,90.30
2022-08-01T05:38:17.397Z,90.00
2022-08-01T05:40:45.158Z,90.00
2022-08-01T05:43:12.913Z,90.10
2022-08-01T05:45:42.309Z,90.10
2022-08-01T05:48:10.123Z,90.20
2022-08-01T05:50:37.888Z,90.20
2022-08-01T05:53:07.073Z,90.10
2022-08-01T05:55:35.388Z,90.20
2022-08-01T05:58:03.820Z,90.20
2022-08-01T06:00:31.867Z,90.30
2022-08-01T06:02:59.778Z,90.30
2022-08-01T06:05:28.126Z,90.20
2022-08-01T06:07:55.862Z,90.20
2022-08-01T06:10:24.945Z,90.10
2022-08-01T06:12:52.706Z,90.20
2022-08-01T06:15:20.510Z,90.10
2022-08-01T06:17:48.227Z,90.10
2022-08-01T06:20:16.187Z,90.20
2022-08-01T06:22:43.900Z,90.30
2022-08-01T06:25:20.755Z,90.30
2022-08-01T06:27:50.608Z,90.20
2022-08-01T06:30:18.619Z,90.30
2022-08-01T06:32:46.366Z,90.30
2022-08-01T06:35:14.089Z,90.20
2022-08-01T06:37:41.848Z,90.10
2022-08-01T06:40:16.888Z,90.10
2022-08-01T06:42:46.592Z,90.30
2022-08-01T06:45:16.535Z,90.20
2022-08-01T06:47:45.466Z,90.00
2022-08-01T06:50:18.544Z,90.00
2022-08-01T06:52:46.378Z,90.00
2022-08-01T06:55:14.226Z,89.80
2022-08-01T06:57:48.621Z,89.80
2022-08-01T07:00:19.742Z,89.70
2022-08-01T07:02:47.549Z,89.70
2022-08-01T07:05:17.137Z,89.60
2022-08-01T07:07:44.889Z,89.80
2022-08-01T07:10:13.074Z,89.50
2022-08-01T07:12:41.895Z,89.60
2022-08-01T07:15:11.993Z,89.80
2022-08-01T07:17:42.501Z,89.80
2022-08-01T07:20:16.088Z,89.70
2022-08-01T07:22:47.491Z,90.00
2022-08-01T07:25:16.159Z,89.30
2022-08-01T07:27:43.901Z,89.10
2022-08-01T07:30:12.445Z,89.10
2022-08-01T07:32:41.811Z,89.30
2022-08-01T07:35:10.424Z,89.00
2022-08-01T07:37:47.650Z,88.90
2022-08-01T07:40:18.158Z,89.00
2022-08-01T07:42:46.063Z,88.90
2022-08-01T07:45:16.738Z,89.00
2022-08-01T07:47:46.145Z,89.00
2022-08-01T07:50:14.446Z,89.00
2022-08-01T07:52:42.315Z,89.00
2022-08-01T07:55:11.240Z,89.10
2022-08-01T07:57:41.262Z,89.00
2022-08-01T08:00:10.590Z,88.90
2022-08-01T08:02:38.429Z,88.80
2022-08-01T08:05:08.762Z,88.80
2022-08-01T08:07:36.566Z,88.60
2022-08-01T08:10:04.914Z,88.50
2022-08-01T08:12:34.100Z,88.60
2022-08-01T08:15:02.111Z,88.60
2022-08-01T08:17:35.583Z,88.60
2022-08-01T08:20:04.771Z,88.70
2022-08-01T08:22:38.847Z,88.70
2022-08-01T08:25:08.025Z,88.50
2022-08-01T08:27:37.446Z,88.60
2022-08-01T08:30:08.375Z,88.50
2022-08-01T08:32:36.494Z,88.40
2022-08-01T08:35:04.842Z,88.40
2022-08-01T08:37:39.021Z,88.40
2022-08-01T08:40:13.023Z,88.20
2022-08-01T08:42:42.478Z,88.40
2022-08-01T08:45:12.361Z,88.00
2022-08-01T08:47:41.359Z,88.00
2022-08-01T08:50:09.952Z,87.90
2022-08-01T08:52:40.941Z,87.90
2022-08-01T08:55:10.615Z,87.80
2022-08-01T08:57:42.111Z,87.70
2022-08-01T09:00:11.901Z,87.40
2022-08-01T09:02:43.003Z,87.30
2022-08-01T09:05:14.014Z,87.00
2022-08-01T09:07:45.289Z,86.90
2022-08-01T09:10:15.674Z,86.90
2022-08-01T09:13:04.287Z,86.90
2022-08-01T09:15:44.289Z,86.80
2022-08-01T09:21:26.717Z,86.40
2022-08-01T09:23:59.926Z,86.30
2022-08-01T09:26:32.812Z,86.20
2022-08-01T09:29:05.845Z,86.30
2022-08-01T09:31:42.016Z,86.50
2022-08-01T09:34:15.812Z,86.20
2022-08-01T09:36:54.348Z,86.20
2022-08-01T09:39:38.596Z,86.10
2022-08-01T09:42:28.439Z,86.00
2022-08-01T09:44:58.677Z,86.10
2022-08-01T09:47:39.663Z,86.20
2022-08-01T09:53:04.518Z,86.10
2022-08-01T09:55:32.297Z,85.80
2022-08-01T09:58:01.811Z,85.70
2022-08-01T10:00:44.760Z,85.40
2022-08-01T10:03:24.298Z,85.30
2022-08-01T10:05:54.227Z,85.20
2022-08-01T10:08:24.110Z,85.10
2022-08-01T10:11:09.520Z,85.00
2022-08-01T10:13:40.108Z,84.80
2022-08-01T10:16:10.242Z,84.80
2022-08-01T10:18:42.219Z,84.60
2022-08-01T10:21:13.345Z,84.60
2022-08-01T10:23:41.552Z,84.50
2022-08-01T10:26:11.889Z,84.20
2022-08-01T10:28:40.965Z,84.10
2022-08-01T10:31:12.592Z,83.70
2022-08-01T10:33:51.511Z,83.50
2022-08-01T10:36:23.654Z,83.30
2022-08-01T10:38:54.329Z,82.90
2022-08-01T10:41:23.574Z,82.70
2022-08-01T10:43:52.503Z,82.90
2022-08-01T10:46:22.222Z,83.00
2022-08-01T10:48:57.404Z,82.50
2022-08-01T10:51:51.581Z,82.30
2022-08-01T10:54:15.973Z,82.20
2022-08-01T10:56:46.265Z,82.50
2022-08-01T10:59:29.103Z,82.30
2022-08-01T11:02:12.167Z,82.20
2022-08-01T11:04:50.899Z,82.00
2022-08-01T11:07:25.998Z,81.80
2022-08-01T11:10:14.558Z,81.60
2022-08-01T11:12:44.327Z,81.20
2022-08-01T11:15:31.092Z,81.10
2022-08-01T11:18:04.525Z,80.60
2022-08-01T11:20:36.016Z,80.30
2022-08-01T11:23:29.610Z,79.80
2022-08-01T11:26:13.039Z,80.30
2022-08-01T11:29:04.992Z,80.50
2022-08-01T11:31:37.071Z,80.20
2022-08-01T11:34:07.999Z,79.90
2022-08-01T11:36:58.051Z,80.00
2022-08-01T11:39:23.638Z,80.00
2022-08-01T11:41:53.416Z,79.50
2022-08-01T11:44:26.328Z,79.60
2022-08-01T11:47:07.354Z,79.10
2022-08-01T11:50:03.683Z,78.70
2022-08-01T11:52:33.338Z,78.00
2022-08-01T11:55:10.239Z,77.50
2022-08-01T11:57:39.856Z,77.50
2022-08-01T12:00:15.398Z,77.70
2022-08-01T12:02:46.294Z,78.10
2022-08-01T12:05:18.908Z,78.30
2022-08-01T12:07:51.077Z,78.60
2022-08-01T12:10:20.946Z,79.10
2022-08-01T12:12:51.060Z,78.40
2022-08-01T12:15:20.295Z,79.00
2022-08-01T12:17:58.261Z,79.00
2022-08-01T12:20:30.930Z,78.80
2022-08-01T12:23:01.137Z,78.20
2022-08-01T12:25:29.573Z,77.50
2022-08-01T12:28:01.078Z,77.10
2022-08-01T12:30:29.486Z,77.20
2022-08-01T12:32:57.325Z,77.90
2022-08-01T12:35:27.497Z,77.30
2022-08-01T12:37:58.327Z,77.40
2022-08-01T12:40:28.114Z,77.20
2022-08-01T12:42:57.350Z,77.30
2022-08-01T12:45:27.138Z,77.40
2022-08-01T12:47:55.916Z,77.10
2022-08-01T12:50:26.244Z,76.90
2022-08-01T12:52:55.831Z,76.70
2022-08-01T12:55:34.324Z,76.60
2022-08-01T12:58:10.296Z,76.70
2022-08-01T13:00:44.837Z,76.70
2022-08-01T13:03:15.210Z,76.30
2022-08-01T13:05:44.838Z,76.30
2022-08-01T13:08:15.008Z,75.60
2022-08-01T13:10:43.158Z,76.30
2022-08-01T13:13:11.949Z,76.60
2022-08-01T13:15:50.554Z,77.00
2022-08-01T13:18:27.833Z,76.80
2022-08-01T13:21:13.149Z,76.30
2022-08-01T13:24:03.021Z,75.70
2022-08-01T13:26:44.841Z,75.80
2022-08-01T13:29:14.767Z,75.90
2022-08-01T13:31:43.460Z,75.90
2022-08-01T13:34:11.634Z,75.80
2022-08-01T13:36:44.190Z,75.80
2022-08-01T13:39:35.804Z,75.70
2022-08-01T13:42:03.802Z,75.30
2022-08-01T13:44:32.355Z,74.70
2022-08-01T13:47:00.196Z,74.80
2022-08-01T13:49:35.581Z,74.60
2022-08-01T13:52:07.522Z,74.10
2022-08-01T13:54:37.159Z,75.00
2022-08-01T13:57:05.251Z,75.40
2022-08-01T13:59:33.593Z,75.10
2022-08-01T14:02:05.825Z,74.90
2022-08-01T14:04:33.783Z,74.80
2022-08-01T14:07:05.553Z,74.90
2022-08-01T14:09:45.043Z,74.70
2022-08-01T14:12:26.646Z,74.30
2022-08-01T14:14:54.439Z,74.40
2022-08-01T14:17:22.202Z,74.50
2022-08-01T14:19:50.537Z,74.40
2022-08-01T14:22:18.299Z,74.20
2022-08-01T14:24:47.393Z,73.20
2022-08-01T14:27:15.308Z,73.80
2022-08-01T14:29:59.994Z,72.90
2022-08-01T14:32:30.903Z,73.40
2022-08-01T14:34:58.681Z,72.50
2022-08-01T14:37:28.922Z,73.30
2022-08-01T14:40:00.071Z,73.60
2022-08-01T14:42:28.206Z,73.20
2022-08-01T14:44:55.956Z,73.40
2022-08-01T14:47:24.242Z,73.60
2022-08-01T14:49:52.311Z,73.70
2022-08-01T14:52:20.455Z,74.00
2022-08-01T14:54:48.295Z,74.00
2022-08-01T14:57:19.083Z,73.40
2022-08-01T14:59:46.969Z,73.90
2022-08-01T15:02:17.896Z,74.00
2022-08-01T15:04:46.017Z,74.10
2022-08-01T15:07:13.887Z,73.80
2022-08-01T15:09:41.926Z,73.80
2022-08-01T15:12:10.900Z,73.60
2022-08-01T15:14:52.292Z,73.60
2022-08-01T15:17:21.498Z,73.40
2022-08-01T15:19:53.386Z,73.10
2022-08-01T15:22:22.806Z,73.60
2022-08-01T15:24:55.347Z,74.10
2022-08-01T15:27:25.201Z,74.00
2022-08-01T15:29:54.757Z,73.70
2022-08-01T15:32:23.319Z,73.70
2022-08-01T15:34:51.254Z,73.40
2022-08-01T15:37:19.127Z,73.40
2022-08-01T15:39:46.912Z,73.00
2022-08-01T15:42:20.271Z,73.20
2022-08-01T15:44:55.021Z,73.20
2022-08-01T15:47:24.987Z,73.10
2022-08-01T15:49:53.254Z,73.50
2022-08-01T15:52:23.037Z,73.50
2022-08-01T15:54:51.112Z,73.40
2022-08-01T15:57:19.109Z,72.60
2022-08-01T15:59:46.922Z,73.00
2022-08-01T16:02:16.079Z,72.80
2022-08-01T16:04:43.850Z,72.40
2022-08-01T16:07:12.850Z,73.40
2022-08-01T16:09:40.637Z,73.50
2022-08-01T16:12:10.081Z,73.60
2022-08-01T16:14:38.054Z,73.40
2022-08-01T16:17:05.976Z,73.40
2022-08-01T16:19:36.150Z,73.20
2022-08-01T16:22:04.361Z,73.00
2022-08-01T16:24:33.593Z,72.70
2022-08-01T16:27:01.351Z,73.20
2022-08-01T16:29:30.700Z,73.30
2022-08-01T16:32:24.080Z,73.30
2022-08-01T16:34:47.874Z,73.30
2022-08-01T16:37:16.151Z,73.60
2022-08-01T16:39:45.441Z,73.60
2022-08-01T16:42:15.261Z,73.40
2022-08-01T16:44:44.756Z,73.00
2022-08-01T16:47:12.536Z,73.30
2022-08-01T16:49:40.298Z,73.50
2022-08-01T16:52:09.765Z,73.50
2022-08-01T16:54:37.781Z,73.60
2022-08-01T16:57:08.003Z,73.70
2022-08-01T16:59:41.435Z,74.30
2022-08-01T17:02:10.518Z,74.30
2022-08-01T17:04:38.317Z,74.40
2022-08-01T17:07:06.373Z,74.40
2022-08-01T17:09:39.747Z,74.50
2022-08-01T17:12:11.754Z,74.70
2022-08-01T17:14:39.796Z,74.90
2022-08-01T17:17:08.346Z,75.00
2022-08-01T17:19:36.550Z,75.00
2022-08-01T17:22:04.747Z,75.10
2022-08-01T17:24:32.893Z,75.30
2022-08-01T17:27:01.986Z,75.30
2022-08-01T17:29:43.264Z,75.30
2022-08-01T17:32:13.105Z,75.30
2022-08-01T17:34:41.008Z,75.40
2022-08-01T17:37:09.243Z,75.60
2022-08-01T17:39:39.284Z,75.30
2022-08-01T17:42:10.719Z,75.20
2022-08-01T17:44:38.902Z,75.10
2022-08-01T17:47:09.890Z,75.20
2022-08-01T17:49:54.431Z,75.20
2022-08-01T17:52:23.021Z,75.30
2022-08-01T17:54:53.982Z,75.40
2022-08-01T17:57:23.209Z,75.30
2022-08-01T17:59:51.436Z,75.40
2022-08-01T18:02:19.760Z,75.20
2022-08-01T18:04:48.114Z,75.20
2022-08-01T18:07:19.143Z,75.20
2022-08-01T18:09:47.320Z,75.90
2022-08-01T18:12:15.473Z,75.30
2022-08-01T18:14:45.678Z,75.20
2022-08-01T18:17:14.335Z,75.30
2022-08-01T18:19:46.572Z,75.50
2022-08-01T18:22:31.869Z,75.60
2022-08-01T18:25:08.804Z,75.60
2022-08-01T18:28:22.525Z,75.70
2022-08-01T18:30:28.140Z,75.80
2022-08-01T18:32:56.117Z,75.80
2022-08-01T18:35:33.672Z,76.00
2022-08-01T18:38:12.416Z,76.00
2022-08-01T18:40:41.317Z,76.20
2022-08-01T18:43:09.075Z,76.30
2022-08-01T18:45:42.570Z,76.40
2022-08-01T18:48:10.974Z,76.50
2022-08-01T18:50:39.372Z,76.50
2022-08-01T18:53:07.665Z,76.60
2022-08-01T18:55:35.672Z,76.80
2022-08-01T18:58:03.681Z,76.80
2022-08-01T19:00:31.689Z,76.80
2022-08-01T19:03:00.809Z,76.90
2022-08-01T19:05:28.660Z,76.90
2022-08-01T19:08:06.322Z,77.00
2022-08-01T19:10:36.407Z,77.00
2022-08-01T19:13:04.834Z,77.10
2022-08-01T19:15:32.962Z,77.00
2022-08-01T19:18:03.005Z,77.20
2022-08-01T19:20:30.829Z,77.30
2022-08-01T19:22:58.737Z,77.40
2022-08-01T19:25:27.061Z,77.40
2022-08-01T19:27:57.883Z,77.40
2022-08-01T19:30:26.017Z,77.40
2022-08-01T19:32:56.982Z,77.50
2022-08-01T19:35:26.531Z,77.60
2022-08-01T19:37:54.504Z,77.60
2022-08-01T19:40:26.835Z,77.60
2022-08-01T19:42:57.505Z,77.70
2022-08-01T19:45:29.345Z,77.70
2022-08-01T19:47:58.014Z,77.80
2022-08-01T19:50:27.858Z,77.90
2022-08-01T19:52:57.278Z,77.90
2022-08-01T19:55:25.839Z,77.90
2022-08-01T20:00:42.682Z,78.20
2022-08-01T20:03:11.075Z,78.20
2022-08-01T20:05:40.740Z,78.20
2022-08-01T20:08:09.349Z,78.20
2022-08-01T20:10:39.606Z,78.40
2022-08-01T20:13:10.817Z,78.40
2022-08-01T20:15:39.048Z,78.40
2022-08-01T20:18:07.255Z,78.60
2022-08-01T20:20:36.423Z,78.60
2022-08-01T20:23:10.182Z,78.60
2022-08-01T20:25:40.606Z,78.60
2022-08-01T20:28:11.268Z,79.50
2022-08-01T20:30:39.102Z,78.90
2022-08-01T20:33:08.186Z,79.00
2022-08-01T20:35:51.645Z,78.90
2022-08-01T20:38:24.113Z,79.00
2022-08-01T20:40:54.029Z,79.10
2022-08-01T20:43:23.419Z,79.10
2022-08-01T20:45:51.777Z,79.30
2022-08-01T20:48:20.327Z,79.30
2022-08-01T20:51:06.449Z,79.30
2022-08-01T20:53:40.675Z,79.40
2022-08-01T20:56:15.585Z,79.60
2022-08-01T20:58:58.629Z,79.70
2022-08-01T21:01:29.564Z,79.80
2022-08-01T21:04:17.023Z,79.90
2022-08-01T21:06:51.077Z,80.00
2022-08-01T21:09:24.940Z,80.30
2022-08-01T21:11:58.528Z,80.30
2022-08-01T21:14:41.074Z,80.20
2022-08-01T21:17:16.166Z,80.20
2022-08-01T21:19:45.666Z,80.30
2022-08-01T21:22:26.877Z,80.50
2022-08-01T21:25:04.266Z,80.50
2022-08-01T21:27:34.387Z,80.60
2022-08-01T21:30:05.280Z,80.60
2022-08-01T21:32:34.599Z,80.60
2022-08-01T21:35:03.987Z,80.60
2022-08-01T21:37:32.023Z,80.60
2022-08-01T21:40:09.665Z,80.60
2022-08-01T21:42:39.448Z,80.80
2022-08-01T21:45:09.390Z,80.90
2022-08-01T21:47:38.133Z,80.90
2022-08-01T21:50:06.839Z,81.00
2022-08-01T21:52:44.161Z,81.00
2022-08-01T21:55:35.299Z,81.00
2022-08-01T21:58:19.117Z,81.00
2022-08-01T22:00:58.835Z,81.20
2022-08-01T22:03:31.678Z,81.10
2022-08-01T22:06:01.481Z,81.20
2022-08-01T22:08:34.182Z,81.30
2022-08-01T22:11:06.681Z,81.20
2022-08-01T22:13:35.022Z,81.20
2022-08-01T22:16:05.432Z,81.20
2022-08-01T22:18:34.858Z,81.40
2022-08-01T22:21:03.639Z,81.40
2022-08-01T22:23:35.617Z,81.50
2022-08-01T22:26:07.537Z,81.40
2022-08-01T22:28:35.856Z,81.60
2022-08-01T22:31:04.215Z,81.60
2022-08-01T22:33:34.872Z,81.50
2022-08-01T22:36:04.590Z,81.70
2022-08-01T22:38:32.449Z,81.60
2022-08-01T22:41:05.549Z,81.70
2022-08-01T22:43:39.485Z,81.70
2022-08-01T22:46:20.987Z,81.70
2022-08-01T22:48:53.194Z,81.90
2022-08-01T22:51:31.887Z,82.00
2022-08-01T22:54:05.824Z,82.00
2022-08-01T22:56:39.504Z,82.00
2022-08-01T22:59:13.375Z,82.10
2022-08-01T23:01:47.813Z,82.20
2022-08-01T23:04:24.263Z,82.10
2022-08-01T23:07:05.262Z,82.10
2022-08-01T23:09:54.384Z,82.10
2022-08-01T23:12:25.341Z,82.20
2022-08-01T23:14:55.318Z,82.20
2022-08-01T23:17:26.467Z,82.20
2022-08-01T23:19:57.653Z,82.20
2022-08-01T23:22:28.396Z,82.30
2022-08-01T23:25:03.888Z,82.40
2022-08-01T23:27:52.032Z,82.50
2022-08-01T23:30:27.173Z,82.40
2022-08-01T23:32:55.351Z,82.50
2022-08-01T23:35:24.053Z,82.50
2022-08-01T23:37:52.117Z,82.50
2022-08-01T23:40:20.842Z,82.60
2022-08-01T23:42:54.538Z,82.70
2022-08-01T23:45:23.023Z,82.60
2022-08-01T23:47:50.876Z,82.60
2022-08-01T23:50:18.735Z,82.70
2022-08-01T23:52:50.543Z,82.70
2022-08-01T23:55:26.695Z,82.90
2022-08-01T23:58:08.622Z,82.90
